Savage Insight — WDF9252 — position and weather

sailwx.info

Track history (hours):
 
Tides and Currents Weather Stations Pressure Air Temp Water Temp Dewpoint Dewpoint Depression Visibility Wind Speed Wind Dir Waves Ship Positions

Savage Insight

Owner: Savage Inland Marine, Gibson, LA. More information available from US FCC via Universal Licensing System and Coast Guard Vessel Documentation Center.

Last reported at 2017-Dec-25 12:20 UTC. Time now 2018-Jan-18 10:10 UTC.
Position N 32°38' W 091°09'.
Warning: this ship's position is 23 days out of date.

Length 32 m; draft 10 m.

Type: Towing. MMSI: 367503240.

Date/timePositionNaut miles runAvg speedWind from/ knotsBaromVisibWave heightAir tempDewpointWater temp
2017-Dec-25 12:20N 32°38' W 091°09'1 3.9
2017-Dec-25 11:59N 32°37' W 091°09'0 0.1
2017-Dec-25 11:30N 32°37' W 091°09'0 0.0
2017-Dec-25 11:00N 32°37' W 091°09'0 0.0
2017-Dec-25 10:30N 32°37' W 091°09'0 0.0
2017-Dec-25 10:00N 32°37' W 091°09'0 0.0
2017-Dec-25 09:30N 32°37' W 091°09'0 0.0
2017-Dec-25 09:00N 32°37' W 091°09'0 0.0
2017-Dec-25 08:30N 32°37' W 091°09'0 0.0
2017-Dec-25 08:00N 32°37' W 091°09'0 0.0
2017-Dec-25 07:30N 32°37' W 091°09'0 0.0
2017-Dec-25 07:00N 32°37' W 091°09'0 0.0
2017-Dec-25 06:25N 32°37' W 091°09'0 0.0
2017-Dec-25 06:00N 32°37' W 091°09'0 0.0
2017-Dec-25 05:30N 32°37' W 091°09'0 0.0
2017-Dec-25 05:00N 32°37' W 091°09'0 0.0
2017-Dec-25 04:30N 32°37' W 091°09'0 0.0
2017-Dec-25 04:00N 32°37' W 091°09'1 1.8
2017-Dec-25 03:30N 32°36' W 091°08'3 5.3
2017-Dec-25 03:00N 32°34' W 091°06'2 4.9
2017-Dec-25 02:30N 32°32' W 091°06'2 3.5
2017-Dec-25 02:00N 32°30' W 091°07'0 0.5
2017-Dec-25 01:30N 32°30' W 091°07'0 0.0
2017-Dec-25 01:00N 32°30' W 091°07'0 0.0
2017-Dec-25 00:30N 32°30' W 091°07'0 0.0
2017-Dec-25 00:00N 32°30' W 091°07'0 0.0
2017-Dec-24 23:30N 32°30' W 091°07'0 0.0
2017-Dec-24 23:00N 32°30' W 091°07'0 1.0
2017-Dec-24 22:31N 32°29' W 091°07'3 5.1
2017-Dec-24 22:00N 32°27' W 091°05'1 2.9
2017-Dec-24 21:30N 32°26' W 091°04'2 4.9
2017-Dec-24 21:01N 32°26' W 091°01'2 4.1
2017-Dec-24 20:30N 32°24' W 090°59'2 3.9
2017-Dec-24 20:00N 32°22' W 091°00'2 4.5
2017-Dec-24 19:30N 32°21' W 090°58'3 5.2
2017-Dec-24 19:01N 32°21' W 090°55'2 4.1
2017-Dec-24 18:30N 32°19' W 090°54'3 5.2
2017-Dec-24 18:00N 32°17' W 090°57'2 4.8
2017-Dec-24 17:30N 32°15' W 090°59'1 1.8
2017-Dec-24 17:01N 32°14' W 090°59'2 4.8
2017-Dec-24 16:31N 32°12' W 090°59'1 1.5
2017-Dec-24 15:53N 32°11' W 090°60'0 0.0
2017-Dec-24 15:26N 32°11' W 090°60'0 0.0
2017-Dec-24 15:00N 32°11' W 090°60'0 0.0
2017-Dec-24 14:29N 32°11' W 090°60'1 1.5
2017-Dec-24 14:00N 32°10' W 091°00'2 4.8
2017-Dec-24 13:30N 32°08' W 091°00'2 4.4
2017-Dec-24 13:00N 32°07' W 091°03'3 4.7
2017-Dec-24 12:27N 32°08' W 091°06'  
2017-Dec-21 16:14N 29°59' W 090°24'0 0.0
2017-Dec-21 15:56N 29°59' W 090°24'0 0.0
2017-Dec-21 08:46N 29°59' W 090°24'0 0.0
2017-Dec-21 08:30N 29°59' W 090°24'0 0.0
2017-Dec-21 08:00N 29°59' W 090°24'0 0.0
2017-Dec-21 07:30N 29°59' W 090°24'0 0.0
2017-Dec-21 07:00N 29°59' W 090°24'  
Track history (hours):
 
Tides and Currents Weather Stations Pressure Air Temp Water Temp Dewpoint Dewpoint Depression Visibility Wind Speed Wind Dir Waves Ship Positions

Savage Insight

Owner: Savage Inland Marine, Gibson, LA. More information available from US FCC via Universal Licensing System and Coast Guard Vessel Documentation Center.

Last reported at 2017-Dec-25 12:20 UTC. Time now 2018-Jan-18 10:10 UTC.
Position N 32°38' W 091°09'.
Warning: this ship's position is 23 days out of date.

Length 32 m; draft 10 m.

Type: Towing. MMSI: 367503240.

Date/timePositionNaut miles runAvg speedWind from/ knotsBaromVisibWave heightAir tempDewpointWater temp
2017-Dec-25 12:20N 32°38' W 091°09'1 3.9
2017-Dec-25 11:59N 32°37' W 091°09'0 0.1
2017-Dec-25 11:30N 32°37' W 091°09'0 0.0
2017-Dec-25 11:00N 32°37' W 091°09'0 0.0
2017-Dec-25 10:30N 32°37' W 091°09'0 0.0
2017-Dec-25 10:00N 32°37' W 091°09'0 0.0
2017-Dec-25 09:30N 32°37' W 091°09'0 0.0
2017-Dec-25 09:00N 32°37' W 091°09'0 0.0
2017-Dec-25 08:30N 32°37' W 091°09'0 0.0
2017-Dec-25 08:00N 32°37' W 091°09'0 0.0
2017-Dec-25 07:30N 32°37' W 091°09'0 0.0
2017-Dec-25 07:00N 32°37' W 091°09'0 0.0
2017-Dec-25 06:25N 32°37' W 091°09'0 0.0
2017-Dec-25 06:00N 32°37' W 091°09'0 0.0
2017-Dec-25 05:30N 32°37' W 091°09'0 0.0
2017-Dec-25 05:00N 32°37' W 091°09'0 0.0
2017-Dec-25 04:30N 32°37' W 091°09'0 0.0
2017-Dec-25 04:00N 32°37' W 091°09'1 1.8
2017-Dec-25 03:30N 32°36' W 091°08'3 5.3
2017-Dec-25 03:00N 32°34' W 091°06'2 4.9
2017-Dec-25 02:30N 32°32' W 091°06'2 3.5
2017-Dec-25 02:00N 32°30' W 091°07'0 0.5
2017-Dec-25 01:30N 32°30' W 091°07'0 0.0
2017-Dec-25 01:00N 32°30' W 091°07'0 0.0
2017-Dec-25 00:30N 32°30' W 091°07'0 0.0
2017-Dec-25 00:00N 32°30' W 091°07'0 0.0
2017-Dec-24 23:30N 32°30' W 091°07'0 0.0
2017-Dec-24 23:00N 32°30' W 091°07'0 1.0
2017-Dec-24 22:31N 32°29' W 091°07'3 5.1
2017-Dec-24 22:00N 32°27' W 091°05'1 2.9
2017-Dec-24 21:30N 32°26' W 091°04'2 4.9
2017-Dec-24 21:01N 32°26' W 091°01'2 4.1
2017-Dec-24 20:30N 32°24' W 090°59'2 3.9
2017-Dec-24 20:00N 32°22' W 091°00'2 4.5
2017-Dec-24 19:30N 32°21' W 090°58'3 5.2
2017-Dec-24 19:01N 32°21' W 090°55'2 4.1
2017-Dec-24 18:30N 32°19' W 090°54'3 5.2
2017-Dec-24 18:00N 32°17' W 090°57'2 4.8
2017-Dec-24 17:30N 32°15' W 090°59'1 1.8
2017-Dec-24 17:01N 32°14' W 090°59'2 4.8
2017-Dec-24 16:31N 32°12' W 090°59'1 1.5
2017-Dec-24 15:53N 32°11' W 090°60'0 0.0
2017-Dec-24 15:26N 32°11' W 090°60'0 0.0
2017-Dec-24 15:00N 32°11' W 090°60'0 0.0
2017-Dec-24 14:29N 32°11' W 090°60'1 1.5
2017-Dec-24 14:00N 32°10' W 091°00'2 4.8
2017-Dec-24 13:30N 32°08' W 091°00'2 4.4
2017-Dec-24 13:00N 32°07' W 091°03'3 4.7
2017-Dec-24 12:27N 32°08' W 091°06'  
2017-Dec-21 16:14N 29°59' W 090°24'0 0.0
2017-Dec-21 15:56N 29°59' W 090°24'0 0.0
2017-Dec-21 08:46N 29°59' W 090°24'0 0.0
2017-Dec-21 08:30N 29°59' W 090°24'0 0.0
2017-Dec-21 08:00N 29°59' W 090°24'0 0.0
2017-Dec-21 07:30N 29°59' W 090°24'0 0.0
2017-Dec-21 07:00N 29°59' W 090°24'  

Dump ship's entire track history